sensor_id;sensor_type;location;lat;lon;timestamp;P1;durP1;ratioP1;P2;durP2;ratioP2
81106;SDS011;70588;53.172;8.620;2023-06-19T00:01:17;4.30;;;3.90;;
81106;SDS011;70588;53.172;8.620;2023-06-19T00:03:43;3.58;;;3.28;;
81106;SDS011;70588;53.172;8.620;2023-06-19T00:06:08;4.57;;;3.80;;
81106;SDS011;70588;53.172;8.620;2023-06-19T00:08:34;4.07;;;3.67;;
81106;SDS011;70588;53.172;8.620;2023-06-19T00:11:01;4.38;;;3.50;;
81106;SDS011;70588;53.172;8.620;2023-06-19T00:13:26;5.72;;;3.80;;
81106;SDS011;70588;53.172;8.620;2023-06-19T00:15:52;3.40;;;3.10;;
81106;SDS011;70588;53.172;8.620;2023-06-19T00:18:17;4.00;;;3.55;;
81106;SDS011;70588;53.172;8.620;2023-06-19T00:20:44;3.95;;;3.40;;
81106;SDS011;70588;53.172;8.620;2023-06-19T00:23:11;3.85;;;3.47;;
81106;SDS011;70588;53.172;8.620;2023-06-19T00:25:39;4.18;;;3.50;;
81106;SDS011;70588;53.172;8.620;2023-06-19T00:28:05;4.13;;;3.17;;
81106;SDS011;70588;53.172;8.620;2023-06-19T00:30:38;3.58;;;3.25;;
81106;SDS011;70588;53.172;8.620;2023-06-19T00:33:04;4.97;;;3.53;;
81106;SDS011;70588;53.172;8.620;2023-06-19T00:35:29;3.80;;;3.40;;
81106;SDS011;70588;53.172;8.620;2023-06-19T00:37:55;4.73;;;3.40;;
81106;SDS011;70588;53.172;8.620;2023-06-19T00:40:27;3.90;;;3.50;;
81106;SDS011;70588;53.172;8.620;2023-06-19T00:42:54;3.70;;;3.40;;
81106;SDS011;70588;53.172;8.620;2023-06-19T00:45:19;4.38;;;3.83;;
81106;SDS011;70588;53.172;8.620;2023-06-19T00:47:45;4.93;;;3.45;;
81106;SDS011;70588;53.172;8.620;2023-06-19T00:50:10;4.13;;;3.65;;
81106;SDS011;70588;53.172;8.620;2023-06-19T00:52:37;4.20;;;3.38;;
81106;SDS011;70588;53.172;8.620;2023-06-19T00:55:03;4.22;;;3.83;;
81106;SDS011;70588;53.172;8.620;2023-06-19T00:57:30;4.22;;;3.83;;
81106;SDS011;70588;53.172;8.620;2023-06-19T00:59:56;3.72;;;3.42;;
81106;SDS011;70588;53.172;8.620;2023-06-19T01:02:22;4.00;;;3.60;;
81106;SDS011;70588;53.172;8.620;2023-06-19T01:04:49;4.03;;;3.50;;
81106;SDS011;70588;53.172;8.620;2023-06-19T01:07:16;6.10;;;4.55;;
81106;SDS011;70588;53.172;8.620;2023-06-19T01:09:51;4.93;;;4.22;;
81106;SDS011;70588;53.172;8.620;2023-06-19T01:12:20;4.47;;;4.03;;
81106;SDS011;70588;53.172;8.620;2023-06-19T01:14:58;4.60;;;4.10;;
81106;SDS011;70588;53.172;8.620;2023-06-19T01:17:26;4.07;;;3.65;;
81106;SDS011;70588;53.172;8.620;2023-06-19T01:19:53;4.65;;;4.25;;
81106;SDS011;70588;53.172;8.620;2023-06-19T01:24:52;5.43;;;3.85;;
81106;SDS011;70588;53.172;8.620;2023-06-19T01:27:17;3.85;;;3.45;;
81106;SDS011;70588;53.172;8.620;2023-06-19T01:29:43;3.80;;;3.40;;
81106;SDS011;70588;53.172;8.620;2023-06-19T01:32:15;4.95;;;4.28;;
81106;SDS011;70588;53.172;8.620;2023-06-19T01:34:46;4.25;;;3.85;;
81106;SDS011;70588;53.172;8.620;2023-06-19T01:37:12;4.68;;;3.80;;
81106;SDS011;70588;53.172;8.620;2023-06-19T01:39:39;4.97;;;4.47;;
81106;SDS011;70588;53.172;8.620;2023-06-19T01:42:06;4.93;;;4.40;;
81106;SDS011;70588;53.172;8.620;2023-06-19T01:44:34;5.18;;;4.68;;
81106;SDS011;70588;53.172;8.620;2023-06-19T01:47:07;4.97;;;4.47;;
81106;SDS011;70588;53.172;8.620;2023-06-19T01:49:33;5.10;;;4.22;;
81106;SDS011;70588;53.172;8.620;2023-06-19T01:51:59;5.72;;;4.80;;
81106;SDS011;70588;53.172;8.620;2023-06-19T01:54:25;5.45;;;4.80;;
81106;SDS011;70588;53.172;8.620;2023-06-19T01:56:51;5.18;;;4.68;;
81106;SDS011;70588;53.172;8.620;2023-06-19T01:59:16;4.22;;;3.83;;
81106;SDS011;70588;53.172;8.620;2023-06-19T02:01:42;5.70;;;5.10;;
81106;SDS011;70588;53.172;8.620;2023-06-19T02:04:07;5.18;;;4.63;;
81106;SDS011;70588;53.172;8.620;2023-06-19T02:06:32;5.47;;;4.70;;
81106;SDS011;70588;53.172;8.620;2023-06-19T02:08:58;5.27;;;4.70;;
81106;SDS011;70588;53.172;8.620;2023-06-19T02:11:23;5.70;;;4.55;;
81106;SDS011;70588;53.172;8.620;2023-06-19T02:13:48;5.78;;;4.93;;
81106;SDS011;70588;53.172;8.620;2023-06-19T02:16:14;6.15;;;5.25;;
81106;SDS011;70588;53.172;8.620;2023-06-19T02:18:39;5.35;;;4.72;;
81106;SDS011;70588;53.172;8.620;2023-06-19T02:21:04;5.67;;;4.50;;
81106;SDS011;70588;53.172;8.620;2023-06-19T02:23:30;6.20;;;4.80;;
81106;SDS011;70588;53.172;8.620;2023-06-19T02:25:55;5.00;;;4.50;;
81106;SDS011;70588;53.172;8.620;2023-06-19T02:28:21;7.55;;;4.75;;
81106;SDS011;70588;53.172;8.620;2023-06-19T02:30:46;6.18;;;5.00;;
81106;SDS011;70588;53.172;8.620;2023-06-19T02:33:11;5.03;;;4.47;;
81106;SDS011;70588;53.172;8.620;2023-06-19T02:35:38;5.38;;;4.88;;
81106;SDS011;70588;53.172;8.620;2023-06-19T02:38:05;6.35;;;4.78;;
81106;SDS011;70588;53.172;8.620;2023-06-19T02:40:31;5.93;;;5.03;;
81106;SDS011;70588;53.172;8.620;2023-06-19T02:42:56;7.43;;;4.87;;
81106;SDS011;70588;53.172;8.620;2023-06-19T02:45:21;5.40;;;4.70;;
81106;SDS011;70588;53.172;8.620;2023-06-19T02:47:47;5.15;;;4.65;;
81106;SDS011;70588;53.172;8.620;2023-06-19T02:50:12;5.25;;;4.30;;
81106;SDS011;70588;53.172;8.620;2023-06-19T02:52:37;4.63;;;4.05;;
81106;SDS011;70588;53.172;8.620;2023-06-19T02:55:03;4.67;;;4.17;;
81106;SDS011;70588;53.172;8.620;2023-06-19T02:57:29;5.85;;;4.53;;
81106;SDS011;70588;53.172;8.620;2023-06-19T02:59:54;4.67;;;4.10;;
81106;SDS011;70588;53.172;8.620;2023-06-19T03:02:19;5.03;;;4.27;;
81106;SDS011;70588;53.172;8.620;2023-06-19T03:04:45;4.65;;;4.05;;
81106;SDS011;70588;53.172;8.620;2023-06-19T03:07:10;5.23;;;4.13;;
81106;SDS011;70588;53.172;8.620;2023-06-19T03:09:36;5.20;;;4.65;;
81106;SDS011;70588;53.172;8.620;2023-06-19T03:12:01;5.57;;;4.00;;
81106;SDS011;70588;53.172;8.620;2023-06-19T03:14:27;5.00;;;4.50;;
81106;SDS011;70588;53.172;8.620;2023-06-19T03:16:52;4.22;;;3.58;;
81106;SDS011;70588;53.172;8.620;2023-06-19T03:19:18;6.40;;;4.43;;
81106;SDS011;70588;53.172;8.620;2023-06-19T03:21:43;5.82;;;4.47;;
81106;SDS011;70588;53.172;8.620;2023-06-19T03:24:08;6.57;;;4.97;;
81106;SDS011;70588;53.172;8.620;2023-06-19T03:26:34;5.10;;;3.97;;
81106;SDS011;70588;53.172;8.620;2023-06-19T03:28:59;5.68;;;4.38;;
81106;SDS011;70588;53.172;8.620;2023-06-19T03:31:24;5.93;;;4.30;;
81106;SDS011;70588;53.172;8.620;2023-06-19T03:33:50;5.95;;;4.50;;
81106;SDS011;70588;53.172;8.620;2023-06-19T03:36:15;7.13;;;4.50;;
81106;SDS011;70588;53.172;8.620;2023-06-19T03:38:41;4.85;;;4.35;;
81106;SDS011;70588;53.172;8.620;2023-06-19T03:41:06;5.63;;;4.63;;
81106;SDS011;70588;53.172;8.620;2023-06-19T03:43:32;6.35;;;4.15;;
81106;SDS011;70588;53.172;8.620;2023-06-19T03:45:57;4.95;;;4.20;;
81106;SDS011;70588;53.172;8.620;2023-06-19T03:48:22;6.22;;;4.55;;
81106;SDS011;70588;53.172;8.620;2023-06-19T03:50:48;4.93;;;4.20;;
81106;SDS011;70588;53.172;8.620;2023-06-19T03:53:13;5.70;;;4.90;;
81106;SDS011;70588;53.172;8.620;2023-06-19T03:55:39;5.93;;;4.65;;
81106;SDS011;70588;53.172;8.620;2023-06-19T03:58:04;6.38;;;4.90;;
81106;SDS011;70588;53.172;8.620;2023-06-19T04:00:31;7.10;;;4.55;;
81106;SDS011;70588;53.172;8.620;2023-06-19T04:02:56;4.88;;;3.90;;
81106;SDS011;70588;53.172;8.620;2023-06-19T04:05:22;4.77;;;4.33;;
81106;SDS011;70588;53.172;8.620;2023-06-19T04:07:47;5.38;;;4.88;;
81106;SDS011;70588;53.172;8.620;2023-06-19T04:10:13;6.57;;;4.40;;
81106;SDS011;70588;53.172;8.620;2023-06-19T04:12:38;6.65;;;5.10;;
81106;SDS011;70588;53.172;8.620;2023-06-19T04:15:05;5.18;;;4.68;;
81106;SDS011;70588;53.172;8.620;2023-06-19T04:17:31;7.45;;;5.20;;
81106;SDS011;70588;53.172;8.620;2023-06-19T04:19:57;7.60;;;4.50;;
81106;SDS011;70588;53.172;8.620;2023-06-19T04:22:22;5.90;;;5.28;;
81106;SDS011;70588;53.172;8.620;2023-06-19T04:24:47;6.50;;;4.60;;
81106;SDS011;70588;53.172;8.620;2023-06-19T04:27:13;5.90;;;4.37;;
81106;SDS011;70588;53.172;8.620;2023-06-19T04:29:38;4.95;;;4.30;;
81106;SDS011;70588;53.172;8.620;2023-06-19T04:32:03;5.10;;;4.60;;
81106;SDS011;70588;53.172;8.620;2023-06-19T04:34:36;6.28;;;4.75;;
81106;SDS011;70588;53.172;8.620;2023-06-19T04:37:03;4.85;;;4.43;;
81106;SDS011;70588;53.172;8.620;2023-06-19T04:39:29;4.85;;;4.45;;
81106;SDS011;70588;53.172;8.620;2023-06-19T04:41:54;4.87;;;3.70;;
81106;SDS011;70588;53.172;8.620;2023-06-19T04:44:19;5.53;;;3.93;;
81106;SDS011;70588;53.172;8.620;2023-06-19T04:46:45;4.87;;;3.93;;
81106;SDS011;70588;53.172;8.620;2023-06-19T04:49:10;4.97;;;4.23;;
81106;SDS011;70588;53.172;8.620;2023-06-19T04:51:35;5.25;;;4.45;;
81106;SDS011;70588;53.172;8.620;2023-06-19T04:54:01;5.65;;;4.60;;
81106;SDS011;70588;53.172;8.620;2023-06-19T04:56:27;4.90;;;4.32;;
81106;SDS011;70588;53.172;8.620;2023-06-19T04:58:53;5.03;;;4.40;;
81106;SDS011;70588;53.172;8.620;2023-06-19T05:01:21;4.70;;;4.18;;
81106;SDS011;70588;53.172;8.620;2023-06-19T05:06:18;4.88;;;3.97;;
81106;SDS011;70588;53.172;8.620;2023-06-19T05:08:43;4.60;;;3.45;;
81106;SDS011;70588;53.172;8.620;2023-06-19T05:11:08;4.60;;;4.10;;
81106;SDS011;70588;53.172;8.620;2023-06-19T05:13:34;4.75;;;4.13;;
81106;SDS011;70588;53.172;8.620;2023-06-19T05:15:59;5.77;;;4.23;;
81106;SDS011;70588;53.172;8.620;2023-06-19T05:18:24;6.25;;;4.95;;
81106;SDS011;70588;53.172;8.620;2023-06-19T05:20:50;4.47;;;3.80;;
81106;SDS011;70588;53.172;8.620;2023-06-19T05:23:15;8.33;;;4.60;;
81106;SDS011;70588;53.172;8.620;2023-06-19T05:25:40;5.17;;;4.40;;
81106;SDS011;70588;53.172;8.620;2023-06-19T05:28:07;7.70;;;4.15;;
81106;SDS011;70588;53.172;8.620;2023-06-19T05:30:33;4.97;;;4.22;;
81106;SDS011;70588;53.172;8.620;2023-06-19T05:32:59;5.15;;;3.63;;
81106;SDS011;70588;53.172;8.620;2023-06-19T05:35:25;9.18;;;4.43;;
81106;SDS011;70588;53.172;8.620;2023-06-19T05:37:51;5.78;;;4.20;;
81106;SDS011;70588;53.172;8.620;2023-06-19T05:40:16;7.77;;;4.87;;
81106;SDS011;70588;53.172;8.620;2023-06-19T05:42:42;8.10;;;4.60;;
81106;SDS011;70588;53.172;8.620;2023-06-19T05:45:07;6.38;;;4.65;;
81106;SDS011;70588;53.172;8.620;2023-06-19T05:47:33;8.90;;;5.60;;
81106;SDS011;70588;53.172;8.620;2023-06-19T05:49:58;8.55;;;5.10;;
81106;SDS011;70588;53.172;8.620;2023-06-19T05:52:24;6.22;;;4.45;;
81106;SDS011;70588;53.172;8.620;2023-06-19T05:54:50;6.70;;;4.70;;
81106;SDS011;70588;53.172;8.620;2023-06-19T05:57:15;6.43;;;4.70;;
81106;SDS011;70588;53.172;8.620;2023-06-19T05:59:43;6.55;;;4.43;;
81106;SDS011;70588;53.172;8.620;2023-06-19T06:02:09;7.25;;;4.72;;
81106;SDS011;70588;53.172;8.620;2023-06-19T06:04:34;7.70;;;4.45;;
81106;SDS011;70588;53.172;8.620;2023-06-19T06:07:01;7.97;;;4.63;;
81106;SDS011;70588;53.172;8.620;2023-06-19T06:09:26;6.85;;;4.55;;
81106;SDS011;70588;53.172;8.620;2023-06-19T06:11:52;6.82;;;4.68;;
81106;SDS011;70588;53.172;8.620;2023-06-19T06:14:17;5.53;;;4.53;;
81106;SDS011;70588;53.172;8.620;2023-06-19T06:16:43;5.75;;;4.53;;
81106;SDS011;70588;53.172;8.620;2023-06-19T06:19:08;5.65;;;4.50;;
81106;SDS011;70588;53.172;8.620;2023-06-19T06:21:34;5.55;;;4.80;;
81106;SDS011;70588;53.172;8.620;2023-06-19T06:23:59;4.72;;;4.28;;
81106;SDS011;70588;53.172;8.620;2023-06-19T06:26:25;7.07;;;5.00;;
81106;SDS011;70588;53.172;8.620;2023-06-19T06:28:52;5.07;;;4.57;;
81106;SDS011;70588;53.172;8.620;2023-06-19T06:31:18;5.60;;;5.10;;
81106;SDS011;70588;53.172;8.620;2023-06-19T06:33:43;6.05;;;4.38;;
81106;SDS011;70588;53.172;8.620;2023-06-19T06:36:09;4.90;;;4.40;;
81106;SDS011;70588;53.172;8.620;2023-06-19T06:38:34;6.93;;;5.15;;
81106;SDS011;70588;53.172;8.620;2023-06-19T06:41:00;5.20;;;4.70;;
81106;SDS011;70588;53.172;8.620;2023-06-19T06:43:25;5.97;;;5.20;;
81106;SDS011;70588;53.172;8.620;2023-06-19T06:45:50;5.43;;;4.85;;
81106;SDS011;70588;53.172;8.620;2023-06-19T06:48:16;5.90;;;5.10;;
81106;SDS011;70588;53.172;8.620;2023-06-19T06:50:41;10.75;;;4.97;;
81106;SDS011;70588;53.172;8.620;2023-06-19T06:53:07;5.75;;;4.93;;
81106;SDS011;70588;53.172;8.620;2023-06-19T06:55:33;5.72;;;4.38;;
81106;SDS011;70588;53.172;8.620;2023-06-19T06:57:58;5.15;;;4.10;;
81106;SDS011;70588;53.172;8.620;2023-06-19T07:00:24;5.80;;;4.90;;
81106;SDS011;70588;53.172;8.620;2023-06-19T07:02:49;6.93;;;4.38;;
81106;SDS011;70588;53.172;8.620;2023-06-19T07:05:15;5.80;;;4.60;;
81106;SDS011;70588;53.172;8.620;2023-06-19T07:07:41;4.80;;;4.32;;
81106;SDS011;70588;53.172;8.620;2023-06-19T07:10:06;5.38;;;4.88;;
81106;SDS011;70588;53.172;8.620;2023-06-19T07:12:32;5.45;;;4.45;;
81106;SDS011;70588;53.172;8.620;2023-06-19T07:14:58;5.15;;;4.25;;
81106;SDS011;70588;53.172;8.620;2023-06-19T07:17:23;5.88;;;4.43;;
81106;SDS011;70588;53.172;8.620;2023-06-19T07:19:48;7.15;;;4.93;;
81106;SDS011;70588;53.172;8.620;2023-06-19T07:22:14;5.90;;;4.33;;
81106;SDS011;70588;53.172;8.620;2023-06-19T07:24:40;5.57;;;4.32;;
81106;SDS011;70588;53.172;8.620;2023-06-19T07:27:05;5.25;;;4.40;;
81106;SDS011;70588;53.172;8.620;2023-06-19T07:29:31;6.72;;;5.00;;
81106;SDS011;70588;53.172;8.620;2023-06-19T07:31:57;5.35;;;4.47;;
81106;SDS011;70588;53.172;8.620;2023-06-19T07:34:23;5.55;;;4.95;;
81106;SDS011;70588;53.172;8.620;2023-06-19T07:36:48;5.70;;;4.75;;
81106;SDS011;70588;53.172;8.620;2023-06-19T07:39:14;4.90;;;4.40;;
81106;SDS011;70588;53.172;8.620;2023-06-19T07:41:39;5.10;;;4.60;;
81106;SDS011;70588;53.172;8.620;2023-06-19T07:44:05;4.53;;;3.60;;
81106;SDS011;70588;53.172;8.620;2023-06-19T07:46:30;4.68;;;3.80;;
81106;SDS011;70588;53.172;8.620;2023-06-19T07:48:55;3.33;;;3.00;;
81106;SDS011;70588;53.172;8.620;2023-06-19T07:51:21;4.85;;;4.32;;
81106;SDS011;70588;53.172;8.620;2023-06-19T07:53:46;4.90;;;3.83;;
81106;SDS011;70588;53.172;8.620;2023-06-19T07:56:12;6.38;;;5.10;;
81106;SDS011;70588;53.172;8.620;2023-06-19T07:58:37;4.38;;;3.97;;
81106;SDS011;70588;53.172;8.620;2023-06-19T08:01:03;4.68;;;3.75;;
81106;SDS011;70588;53.172;8.620;2023-06-19T08:03:28;6.75;;;5.28;;
81106;SDS011;70588;53.172;8.620;2023-06-19T08:05:53;6.07;;;4.60;;
81106;SDS011;70588;53.172;8.620;2023-06-19T08:08:19;4.32;;;3.90;;
81106;SDS011;70588;53.172;8.620;2023-06-19T08:10:44;6.18;;;4.72;;
81106;SDS011;70588;53.172;8.620;2023-06-19T08:13:10;5.78;;;4.38;;
81106;SDS011;70588;53.172;8.620;2023-06-19T08:15:36;5.65;;;5.00;;
81106;SDS011;70588;53.172;8.620;2023-06-19T08:18:02;4.07;;;3.65;;
81106;SDS011;70588;53.172;8.620;2023-06-19T08:20:27;5.82;;;4.57;;
81106;SDS011;70588;53.172;8.620;2023-06-19T08:22:53;5.05;;;4.57;;
81106;SDS011;70588;53.172;8.620;2023-06-19T08:25:18;4.40;;;3.55;;
81106;SDS011;70588;53.172;8.620;2023-06-19T08:27:44;5.05;;;3.88;;
81106;SDS011;70588;53.172;8.620;2023-06-19T08:30:10;6.07;;;4.72;;
81106;SDS011;70588;53.172;8.620;2023-06-19T08:32:36;3.85;;;3.40;;
81106;SDS011;70588;53.172;8.620;2023-06-19T08:35:02;4.60;;;4.20;;
81106;SDS011;70588;53.172;8.620;2023-06-19T08:37:28;4.45;;;3.65;;
81106;SDS011;70588;53.172;8.620;2023-06-19T08:39:53;4.60;;;3.78;;
81106;SDS011;70588;53.172;8.620;2023-06-19T08:42:21;6.22;;;4.70;;
81106;SDS011;70588;53.172;8.620;2023-06-19T08:44:47;6.93;;;5.07;;
81106;SDS011;70588;53.172;8.620;2023-06-19T08:47:13;4.47;;;4.00;;
81106;SDS011;70588;53.172;8.620;2023-06-19T08:49:39;4.32;;;3.50;;
81106;SDS011;70588;53.172;8.620;2023-06-19T08:52:04;4.35;;;3.95;;
81106;SDS011;70588;53.172;8.620;2023-06-19T08:54:31;4.50;;;3.88;;
81106;SDS011;70588;53.172;8.620;2023-06-19T08:56:59;4.50;;;3.60;;
81106;SDS011;70588;53.172;8.620;2023-06-19T08:59:26;4.97;;;3.30;;
81106;SDS011;70588;53.172;8.620;2023-06-19T09:01:54;4.45;;;4.05;;
81106;SDS011;70588;53.172;8.620;2023-06-19T09:04:20;5.63;;;4.20;;
81106;SDS011;70588;53.172;8.620;2023-06-19T09:06:51;4.97;;;3.90;;
81106;SDS011;70588;53.172;8.620;2023-06-19T09:09:18;5.90;;;4.07;;
81106;SDS011;70588;53.172;8.620;2023-06-19T09:12:02;4.32;;;3.92;;
81106;SDS011;70588;53.172;8.620;2023-06-19T09:14:40;4.32;;;3.10;;
81106;SDS011;70588;53.172;8.620;2023-06-19T09:17:10;3.60;;;3.25;;
81106;SDS011;70588;53.172;8.620;2023-06-19T09:19:37;4.15;;;3.40;;
81106;SDS011;70588;53.172;8.620;2023-06-19T09:22:08;3.53;;;3.13;;
81106;SDS011;70588;53.172;8.620;2023-06-19T09:24:37;3.63;;;3.28;;
81106;SDS011;70588;53.172;8.620;2023-06-19T09:27:10;4.80;;;3.47;;
81106;SDS011;70588;53.172;8.620;2023-06-19T09:29:43;4.05;;;3.20;;
81106;SDS011;70588;53.172;8.620;2023-06-19T09:35:01;4.80;;;3.33;;
81106;SDS011;70588;53.172;8.620;2023-06-19T09:37:28;3.38;;;3.10;;
81106;SDS011;70588;53.172;8.620;2023-06-19T09:39:58;3.25;;;2.95;;
81106;SDS011;70588;53.172;8.620;2023-06-19T09:42:29;3.40;;;3.10;;
81106;SDS011;70588;53.172;8.620;2023-06-19T09:45:00;3.35;;;2.92;;
81106;SDS011;70588;53.172;8.620;2023-06-19T09:47:35;3.70;;;3.40;;
81106;SDS011;70588;53.172;8.620;2023-06-19T09:50:02;4.50;;;3.95;;
81106;SDS011;70588;53.172;8.620;2023-06-19T09:52:28;4.05;;;3.65;;
81106;SDS011;70588;53.172;8.620;2023-06-19T09:54:54;3.85;;;3.55;;
81106;SDS011;70588;53.172;8.620;2023-06-19T09:57:21;3.70;;;3.40;;
81106;SDS011;70588;53.172;8.620;2023-06-19T09:59:48;3.58;;;3.28;;
81106;SDS011;70588;53.172;8.620;2023-06-19T10:02:19;4.50;;;3.60;;
81106;SDS011;70588;53.172;8.620;2023-06-19T10:04:50;5.25;;;4.85;;
81106;SDS011;70588;53.172;8.620;2023-06-19T10:07:24;6.43;;;5.93;;
81106;SDS011;70588;53.172;8.620;2023-06-19T10:10:01;6.50;;;5.90;;
81106;SDS011;70588;53.172;8.620;2023-06-19T10:12:52;5.43;;;4.50;;
81106;SDS011;70588;53.172;8.620;2023-06-19T10:17:47;5.30;;;4.90;;
81106;SDS011;70588;53.172;8.620;2023-06-19T10:22:57;4.63;;;4.18;;
81106;SDS011;70588;53.172;8.620;2023-06-19T10:25:27;4.50;;;4.13;;
81106;SDS011;70588;53.172;8.620;2023-06-19T10:27:54;3.88;;;3.33;;
81106;SDS011;70588;53.172;8.620;2023-06-19T10:30:20;2.42;;;2.22;;
81106;SDS011;70588;53.172;8.620;2023-06-19T10:32:46;2.88;;;2.38;;
81106;SDS011;70588;53.172;8.620;2023-06-19T10:35:12;1.95;;;1.75;;
81106;SDS011;70588;53.172;8.620;2023-06-19T10:37:38;2.20;;;2.00;;
81106;SDS011;70588;53.172;8.620;2023-06-19T10:40:04;3.90;;;2.58;;
81106;SDS011;70588;53.172;8.620;2023-06-19T10:42:36;2.50;;;2.30;;
81106;SDS011;70588;53.172;8.620;2023-06-19T10:45:03;2.63;;;2.15;;
81106;SDS011;70588;53.172;8.620;2023-06-19T10:47:31;2.80;;;2.42;;
81106;SDS011;70588;53.172;8.620;2023-06-19T10:49:57;2.83;;;2.30;;
81106;SDS011;70588;53.172;8.620;2023-06-19T10:52:22;2.78;;;2.58;;
81106;SDS011;70588;53.172;8.620;2023-06-19T10:54:54;2.17;;;1.98;;
81106;SDS011;70588;53.172;8.620;2023-06-19T10:57:27;2.13;;;1.92;;
81106;SDS011;70588;53.172;8.620;2023-06-19T10:59:56;2.72;;;1.63;;
81106;SDS011;70588;53.172;8.620;2023-06-19T11:02:23;2.15;;;1.95;;
81106;SDS011;70588;53.172;8.620;2023-06-19T11:04:53;2.58;;;2.00;;
81106;SDS011;70588;53.172;8.620;2023-06-19T11:07:22;2.63;;;2.25;;
81106;SDS011;70588;53.172;8.620;2023-06-19T11:09:48;2.20;;;2.00;;
81106;SDS011;70588;53.172;8.620;2023-06-19T11:12:20;2.10;;;1.90;;
81106;SDS011;70588;53.172;8.620;2023-06-19T11:14:47;2.10;;;1.92;;
81106;SDS011;70588;53.172;8.620;2023-06-19T11:17:14;2.15;;;1.95;;
81106;SDS011;70588;53.172;8.620;2023-06-19T11:19:40;2.13;;;1.92;;
81106;SDS011;70588;53.172;8.620;2023-06-19T11:22:07;2.45;;;2.05;;
81106;SDS011;70588;53.172;8.620;2023-06-19T11:24:33;2.13;;;1.92;;
81106;SDS011;70588;53.172;8.620;2023-06-19T11:26:58;1.80;;;1.70;;
81106;SDS011;70588;53.172;8.620;2023-06-19T11:29:30;2.28;;;2.08;;
81106;SDS011;70588;53.172;8.620;2023-06-19T11:32:12;2.05;;;1.80;;
81106;SDS011;70588;53.172;8.620;2023-06-19T11:34:39;2.47;;;2.03;;
81106;SDS011;70588;53.172;8.620;2023-06-19T11:37:11;3.10;;;1.85;;
81106;SDS011;70588;53.172;8.620;2023-06-19T11:39:38;2.40;;;2.20;;
81106;SDS011;70588;53.172;8.620;2023-06-19T11:42:04;2.20;;;2.00;;
81106;SDS011;70588;53.172;8.620;2023-06-19T11:44:30;2.38;;;2.00;;
81106;SDS011;70588;53.172;8.620;2023-06-19T11:46:59;2.50;;;2.08;;
81106;SDS011;70588;53.172;8.620;2023-06-19T11:49:25;2.63;;;2.42;;
81106;SDS011;70588;53.172;8.620;2023-06-19T11:51:51;3.58;;;2.53;;
81106;SDS011;70588;53.172;8.620;2023-06-19T11:54:17;3.30;;;2.88;;
81106;SDS011;70588;53.172;8.620;2023-06-19T11:56:45;5.10;;;4.70;;
81106;SDS011;70588;53.172;8.620;2023-06-19T11:59:12;5.50;;;4.93;;
81106;SDS011;70588;53.172;8.620;2023-06-19T12:01:39;6.57;;;5.93;;
81106;SDS011;70588;53.172;8.620;2023-06-19T12:04:05;7.45;;;6.63;;
81106;SDS011;70588;53.172;8.620;2023-06-19T12:06:31;6.40;;;5.82;;
81106;SDS011;70588;53.172;8.620;2023-06-19T12:08:56;4.88;;;4.45;;
81106;SDS011;70588;53.172;8.620;2023-06-19T12:11:22;5.50;;;5.00;;
81106;SDS011;70588;53.172;8.620;2023-06-19T12:13:47;5.88;;;4.68;;
81106;SDS011;70588;53.172;8.620;2023-06-19T12:16:13;5.47;;;4.97;;
81106;SDS011;70588;53.172;8.620;2023-06-19T12:18:39;5.28;;;4.78;;
81106;SDS011;70588;53.172;8.620;2023-06-19T12:21:05;3.85;;;3.55;;
81106;SDS011;70588;53.172;8.620;2023-06-19T12:23:31;4.15;;;3.70;;
81106;SDS011;70588;53.172;8.620;2023-06-19T12:25:56;3.58;;;3.28;;
81106;SDS011;70588;53.172;8.620;2023-06-19T12:28:22;3.08;;;2.78;;
81106;SDS011;70588;53.172;8.620;2023-06-19T12:30:48;4.25;;;3.85;;
81106;SDS011;70588;53.172;8.620;2023-06-19T12:33:16;4.05;;;3.60;;
81106;SDS011;70588;53.172;8.620;2023-06-19T12:35:43;4.05;;;3.65;;
81106;SDS011;70588;53.172;8.620;2023-06-19T12:38:08;4.93;;;4.20;;
81106;SDS011;70588;53.172;8.620;2023-06-19T12:40:34;3.80;;;3.50;;
81106;SDS011;70588;53.172;8.620;2023-06-19T12:43:01;4.43;;;4.03;;
81106;SDS011;70588;53.172;8.620;2023-06-19T12:45:26;4.90;;;4.47;;
81106;SDS011;70588;53.172;8.620;2023-06-19T12:47:51;4.50;;;4.10;;
81106;SDS011;70588;53.172;8.620;2023-06-19T12:50:17;4.53;;;3.90;;
81106;SDS011;70588;53.172;8.620;2023-06-19T12:52:42;4.78;;;4.38;;
81106;SDS011;70588;53.172;8.620;2023-06-19T12:55:08;5.47;;;4.97;;
81106;SDS011;70588;53.172;8.620;2023-06-19T12:57:33;5.13;;;4.18;;
81106;SDS011;70588;53.172;8.620;2023-06-19T12:59:59;4.18;;;3.88;;
81106;SDS011;70588;53.172;8.620;2023-06-19T13:02:24;4.78;;;4.38;;
81106;SDS011;70588;53.172;8.620;2023-06-19T13:04:50;4.70;;;4.20;;
81106;SDS011;70588;53.172;8.620;2023-06-19T13:07:15;3.28;;;2.97;;
81106;SDS011;70588;53.172;8.620;2023-06-19T13:09:41;3.67;;;3.38;;
81106;SDS011;70588;53.172;8.620;2023-06-19T13:12:06;3.63;;;3.33;;
81106;SDS011;70588;53.172;8.620;2023-06-19T13:14:32;4.22;;;3.83;;
81106;SDS011;70588;53.172;8.620;2023-06-19T13:16:59;3.25;;;2.95;;
81106;SDS011;70588;53.172;8.620;2023-06-19T13:19:24;3.88;;;3.58;;
81106;SDS011;70588;53.172;8.620;2023-06-19T13:21:50;3.90;;;3.60;;
81106;SDS011;70588;53.172;8.620;2023-06-19T13:24:17;4.22;;;3.83;;
81106;SDS011;70588;53.172;8.620;2023-06-19T13:26:43;3.60;;;3.30;;
81106;SDS011;70588;53.172;8.620;2023-06-19T13:29:10;2.88;;;2.67;;
81106;SDS011;70588;53.172;8.620;2023-06-19T13:31:36;2.50;;;2.30;;
81106;SDS011;70588;53.172;8.620;2023-06-19T13:34:02;4.25;;;3.20;;
81106;SDS011;70588;53.172;8.620;2023-06-19T13:36:28;3.53;;;3.20;;
81106;SDS011;70588;53.172;8.620;2023-06-19T13:38:53;2.25;;;2.05;;
81106;SDS011;70588;53.172;8.620;2023-06-19T13:41:19;4.00;;;2.75;;
81106;SDS011;70588;53.172;8.620;2023-06-19T13:43:44;3.65;;;2.90;;
81106;SDS011;70588;53.172;8.620;2023-06-19T13:46:10;3.08;;;2.47;;
81106;SDS011;70588;53.172;8.620;2023-06-19T13:48:36;2.83;;;2.63;;
81106;SDS011;70588;53.172;8.620;2023-06-19T13:53:33;4.75;;;3.00;;
81106;SDS011;70588;53.172;8.620;2023-06-19T13:55:58;3.20;;;2.63;;
81106;SDS011;70588;53.172;8.620;2023-06-19T13:58:24;4.72;;;3.67;;
81106;SDS011;70588;53.172;8.620;2023-06-19T14:00:49;5.60;;;4.82;;
81106;SDS011;70588;53.172;8.620;2023-06-19T14:03:15;6.97;;;5.05;;
81106;SDS011;70588;53.172;8.620;2023-06-19T14:05:41;3.80;;;2.85;;
81106;SDS011;70588;53.172;8.620;2023-06-19T14:08:06;4.65;;;3.72;;
81106;SDS011;70588;53.172;8.620;2023-06-19T14:10:32;4.13;;;3.70;;
81106;SDS011;70588;53.172;8.620;2023-06-19T14:12:57;3.20;;;2.50;;
81106;SDS011;70588;53.172;8.620;2023-06-19T14:15:23;3.05;;;2.75;;
81106;SDS011;70588;53.172;8.620;2023-06-19T14:17:48;3.05;;;2.60;;
81106;SDS011;70588;53.172;8.620;2023-06-19T14:20:14;2.70;;;2.08;;
81106;SDS011;70588;53.172;8.620;2023-06-19T14:22:39;3.25;;;2.70;;
81106;SDS011;70588;53.172;8.620;2023-06-19T14:25:05;2.70;;;1.95;;
81106;SDS011;70588;53.172;8.620;2023-06-19T14:27:30;3.05;;;2.60;;
81106;SDS011;70588;53.172;8.620;2023-06-19T14:29:56;4.22;;;2.78;;
81106;SDS011;70588;53.172;8.620;2023-06-19T14:32:22;4.85;;;3.10;;
81106;SDS011;70588;53.172;8.620;2023-06-19T14:34:51;2.65;;;2.35;;
81106;SDS011;70588;53.172;8.620;2023-06-19T14:37:16;3.25;;;2.25;;
81106;SDS011;70588;53.172;8.620;2023-06-19T14:39:42;5.50;;;3.50;;
81106;SDS011;70588;53.172;8.620;2023-06-19T14:42:08;4.32;;;2.80;;
81106;SDS011;70588;53.172;8.620;2023-06-19T14:44:35;2.83;;;2.53;;
81106;SDS011;70588;53.172;8.620;2023-06-19T14:47:01;4.10;;;3.70;;
81106;SDS011;70588;53.172;8.620;2023-06-19T14:49:26;3.70;;;3.40;;
81106;SDS011;70588;53.172;8.620;2023-06-19T14:51:52;5.93;;;4.03;;
81106;SDS011;70588;53.172;8.620;2023-06-19T14:54:18;4.45;;;4.05;;
81106;SDS011;70588;53.172;8.620;2023-06-19T14:56:44;4.13;;;3.83;;
81106;SDS011;70588;53.172;8.620;2023-06-19T14:59:12;5.53;;;4.13;;